Randolph, Indiana
Current Conditions -  °F | °C
As of 8:53 PM on Wednesday 17 Dec 2014 (Local Time) from KMIE Reporting Station
Overcast Overcast  
Wind Chill: 16°   Ceiling: 1900
Heat Index: 25°   Visibility: 10mi
Dew Point: 20°   Wind: 9mph
Humidity: 81%   Direction: 290°WNW
Pressure: 30.26"   Gusts: NA
Location:  40.2653°N, 85.0547°W
Report Text: KMIE 180153Z 29008KT 10SM OVC019 M04/M07 A3026 RMK AO2 SLP254 T10391067
Loading
Personal Weather Stations






























Interactive Weather Map New forecast layout! Learn more

10-Day Weather Forecast

Advertisements
Track Severe Weather on mobile